地図

経路データ

SID SEASON NUMBER BASIN SUBBASIN NAME ISO_TIME NATURE LAT LON WMO_WIND WMO_PRES WMO_AGENCY TRACK_TYPE DIST2LAND LANDFALL IFLAG USA_AGENCY USA_ATCF_ID USA_LAT USA_LON USA_RECORD USA_STATUS USA_WIND USA_PRES USA_SSHS USA_R34_NE USA_R34_SE USA_R34_SW USA_R34_NW USA_R50_NE USA_R50_SE USA_R50_SW USA_R50_NW USA_R64_NE USA_R64_SE USA_R64_SW USA_R64_NW USA_POCI USA_ROCI USA_RMW USA_EYE TOKYO_LAT TOKYO_LON TOKYO_GRADE TOKYO_WIND TOKYO_PRES TOKYO_R50_DIR TOKYO_R50_LONG TOKYO_R50_SHORT TOKYO_R30_DIR TOKYO_R30_LONG TOKYO_R30_SHORT TOKYO_LAND CMA_LAT CMA_LON CMA_CAT CMA_WIND CMA_PRES HKO_LAT HKO_LON HKO_CAT HKO_WIND HKO_PRES NEWDELHI_LAT NEWDELHI_LON NEWDELHI_GRADE NEWDELHI_WIND NEWDELHI_PRES NEWDELHI_CI NEWDELHI_DP NEWDELHI_POCI REUNION_LAT REUNION_LON REUNION_TYPE REUNION_WIND REUNION_PRES REUNION_TNUM REUNION_CI REUNION_RMW REUNION_R34_NE REUNION_R34_SE REUNION_R34_SW REUNION_R34_NW REUNION_R50_NE REUNION_R50_SE REUNION_R50_SW REUNION_R50_NW REUNION_R64_NE REUNION_R64_SE REUNION_R64_SW REUNION_R64_NW BOM_LAT BOM_LON BOM_TYPE BOM_WIND BOM_PRES BOM_TNUM BOM_CI BOM_RMW BOM_R34_NE BOM_R34_SE BOM_R34_SW BOM_R34_NW BOM_R50_NE BOM_R50_SE BOM_R50_SW BOM_R50_NW BOM_R64_NE BOM_R64_SE BOM_R64_SW BOM_R64_NW BOM_ROCI BOM_POCI BOM_EYE BOM_POS_METHOD BOM_PRES_METHOD NADI_LAT NADI_LON NADI_CAT NADI_WIND NADI_PRES WELLINGTON_LAT WELLINGTON_LON WELLINGTON_WIND WELLINGTON_PRES DS824_LAT DS824_LON DS824_STAGE DS824_WIND DS824_PRES TD9636_LAT TD9636_LON TD9636_STAGE TD9636_WIND TD9636_PRES TD9635_LAT TD9635_LON TD9635_WIND TD9635_PRES TD9635_ROCI NEUMANN_LAT NEUMANN_LON NEUMANN_CLASS NEUMANN_WIND NEUMANN_PRES MLC_LAT MLC_LON MLC_CLASS MLC_WIND MLC_PRES USA_GUST BOM_GUST BOM_GUST_PER REUNION_GUST REUNION_GUST_PER USA_SEAHGT USA_SEARAD_NE USA_SEARAD_SE USA_SEARAD_SW USA_SEARAD_NW STORM_SPEED STORM_DIR
1927021S11061 1927 3 SI MM NOT_NAMED 1927-01-21 06:00:00 NR -10.6000 60.5000 spur-split 1104 1050 __________O___ -1 -10.6000 60.5000 7 12 222
1927021S11061 1927 3 SI MM NOT_NAMED 1927-01-21 09:00:00 NR -11.0458 60.0913 spur-split 1050 986 __________P___ -1 -11.0458 60.0913 7 12 221
1927021S11061 1927 3 SI MM NOT_NAMED 1927-01-21 12:00:00 NR -11.5031 59.6956 spur-split 986 922 __________P___ -1 -11.5031 59.6956 7 12 219
1927021S11061 1927 3 SI MM NOT_NAMED 1927-01-21 15:00:00 NR -11.9838 59.3271 spur-split 922 861 __________P___ -1 -11.9838 59.3271 7 12 214
1927021S11061 1927 3 SI MM NOT_NAMED 1927-01-21 18:00:00 NR -12.5000 59.0000 spur-split 861 801 __________O___ -1 -12.5000 59.0000 7 12 209
1927021S11061 1927 3 SI MM NOT_NAMED 1927-01-21 21:00:00 NR -13.0614 58.7271 spur-split 790 732 __________P___ -1 -13.0614 58.7271 7 13 202
1927021S11061 1927 3 SI MM NOT_NAMED 1927-01-22 00:00:00 NR -13.6674 58.5155 spur-split 721 653 __________P___ -1 -13.6674 58.5155 7 13 195
1927021S11061 1927 3 SI MM NOT_NAMED 1927-01-22 03:00:00 NR -14.3146 58.3711 spur-split 653 574 __________P___ -1 -14.3146 58.3711 7 14 189
1927021S11061 1927 3 SI MM NOT_NAMED 1927-01-22 06:00:00 NR -15.0000 58.3000 spur-split 574 496 __________O___ -1 -15.0000 58.3000 7 14 183
1927021S11061 1927 3 SI MM NOT_NAMED 1927-01-22 09:00:00 NR -15.7342 58.2863 spur-split 496 407 __________P___ -1 -15.7342 58.2863 7 15 179
1927021S11061 1927 3 SI MM NOT_NAMED 1927-01-22 12:00:00 NR -16.4999 58.3444 spur-split 407 332 __________P___ -1 -16.4999 58.3444 7 16 174
1927021S11061 1927 3 SI MM NOT_NAMED 1927-01-22 15:00:00 NR -17.2656 58.4553 spur-split 324 253 __________P___ -1 -17.2656 58.4553 7 15 171
1927021S11061 1927 3 SI MM NOT_NAMED 1927-01-22 18:00:00 NR -18.0000 58.6000 spur-split 253 188 __________O___ -1 -18.0000 58.6000 7 15 169
1927021S11061 1927 3 SI MM NOT_NAMED 1927-01-22 21:00:00 NR -18.7259 58.7576 spur-split 194 147 __________P___ -1 -18.7259 58.7576 7 15 167
1927021S11061 1927 3 SI MM NOT_NAMED 1927-01-23 00:00:00 NR -19.4074 58.9413 spur-split 147 137 __________P___ -1 -19.4074 58.9413 7 13 165
1927021S11061 1927 3 SI MM NOT_NAMED 1927-01-23 03:00:00 NR -20.0103 59.1295 spur-split 139 137 __________P___ -1 -20.0103 59.1295 7 12 163
1927021S11061 1927 3 SI MM NOT_NAMED 1927-01-23 06:00:00 NR -20.5000 59.3000 spur-split 157 157 __________O___ -1 -20.5000 59.3000 7 9 162
1927021S11061 1927 3 SI MM NOT_NAMED 1927-01-23 09:00:00 NR -20.8520 59.4263 spur-split 179 179 __________P___ -1 -20.8520 59.4263 7 6 160
1927021S11061 1927 3 SI MM NOT_NAMED 1927-01-23 12:00:00 NR -21.0923 59.5308 spur-split 198 198 __________P___ -1 -21.0923 59.5308 7 4 156
1927021S11061 1927 3 SI MM NOT_NAMED 1927-01-23 15:00:00 NR -21.2614 59.6199 spur-split 216 216 __________P___ -1 -21.2614 59.6199 7 3 153
1927021S11061 1927 3 SI MM NOT_NAMED 1927-01-23 18:00:00 NR -21.4000 59.7000 spur-split 230 230 __________O___ -1 -21.4000 59.7000 7 3 154
1927021S11061 1927 3 SI MM NOT_NAMED 1927-01-23 21:00:00 NR -21.5471 59.7744 spur-split 244 244 __________P___ -1 -21.5471 59.7744 7 3 155
1927021S11061 1927 3 SI MM NOT_NAMED 1927-01-24 00:00:00 NR -21.6774 59.8430 spur-split 255 255 __________P___ -1 -21.6774 59.8430 7 3 154
1927021S11061 1927 3 SI MM NOT_NAMED 1927-01-24 03:00:00 NR -21.8190 59.9151 spur-split 270 270 __________P___ -1 -21.8190 59.9151 7 4 156
1927021S11061 1927 3 SI MM NOT_NAMED 1927-01-24 06:00:00 NR -22.0000 60.0000 spur-split 291 291 __________O___ -1 -22.0000 60.0000 7 5 158
1927021S11061 1927 3 SI MM NOT_NAMED 1927-01-24 09:00:00 NR -22.2609 60.1065 spur-split 319 319 __________P___ -1 -22.2609 60.1065 7 6 160
1927021S11061 1927 3 SI MM NOT_NAMED 1927-01-24 12:00:00 NR -22.5625 60.2274 spur-split 349 349 __________P___ -1 -22.5625 60.2274 7 7 159
1927021S11061 1927 3 SI MM NOT_NAMED 1927-01-24 15:00:00 NR -22.8828 60.3597 spur-split 386 386 __________P___ -1 -22.8828 60.3597 7 7 158
1927021S11061 1927 3 SI MM NOT_NAMED 1927-01-24 18:00:00 NR -23.2000 60.5000 spur-split 417 417 __________O___ -1 -23.2000 60.5000 7 7 157
1927021S11061 1927 3 SI MM NOT_NAMED 1927-01-24 21:00:00 NR -23.4969 60.6455 spur-split 449 449 __________P___ -1 -23.4969 60.6455 7 6 155
1927021S11061 1927 3 SI MM NOT_NAMED 1927-01-25 00:00:00 NR -23.7751 60.7947 spur-split 487 487 __________P___ -1 -23.7751 60.7947 7 6 153
1927021S11061 1927 3 SI MM NOT_NAMED 1927-01-25 03:00:00 NR -24.0407 60.9465 spur-split 511 511 __________P___ -1 -24.0407 60.9465 7 6 152
1927021S11061 1927 3 SI MM NOT_NAMED 1927-01-25 06:00:00 NR -24.3000 61.1000 spur-split 549 __________O___ -1 -24.3000 61.1000 7 6 151

IBTrACS Databaseについて

本データベースは、米国NOAAが公開する1842年以降の世界の熱帯低気圧のベストトラックデータアーカイブInternational Best Track Archive for Climate Stewardship (IBTrACS)を、ウェブで閲覧しやすい形式に変換したものです。

最終更新日:2021-11-26